Coal Fire, Alabama
Current Conditions -  °F | °C
As of 3:53 PM on Sunday 23 Nov 2014 (Local Time) from KTCL Reporting Station
Scattered Clouds Scattered Clouds  
Wind Chill: 67°   Ceiling: Unl
Heat Index: 67°   Visibility: 10mi
Dew Point: 59°   Wind: 13mph
Humidity: 76%   Direction: 200°SSW
Pressure: 29.54"   Gusts: 24mph
Location:  33.4223°N, 88.0216°W
Report Text: KTCL 232153Z 20011G21KT 10SM FEW036 FEW046 SCT055 19/15 A2954 RMK AO2 SLP001 T01940150
Loading
Personal Weather Stations






























Interactive Weather Map New forecast layout! Learn more

10-Day Weather Forecast

Advertisements
Track Severe Weather on mobile